sensor_id;sensor_type;location;lat;lon;timestamp;temperature;humidity
46488;DHT22;32202;48.780;9.204;2022-08-21T00:02:21;17.80;87.20
46488;DHT22;32202;48.780;9.204;2022-08-21T00:04:48;17.80;87.90
46488;DHT22;32202;48.780;9.204;2022-08-21T00:07:15;17.70;87.70
46488;DHT22;32202;48.780;9.204;2022-08-21T00:09:41;17.70;88.40
46488;DHT22;32202;48.780;9.204;2022-08-21T00:12:08;17.70;88.80
46488;DHT22;32202;48.780;9.204;2022-08-21T00:14:34;17.60;88.60
46488;DHT22;32202;48.780;9.204;2022-08-21T00:17:01;17.60;88.50
46488;DHT22;32202;48.780;9.204;2022-08-21T00:19:27;17.60;88.70
46488;DHT22;32202;48.780;9.204;2022-08-21T00:21:54;17.50;88.60
46488;DHT22;32202;48.780;9.204;2022-08-21T00:24:22;17.50;88.70
46488;DHT22;32202;48.780;9.204;2022-08-21T00:26:48;17.50;89.00
46488;DHT22;32202;48.780;9.204;2022-08-21T00:29:15;17.50;88.90
46488;DHT22;32202;48.780;9.204;2022-08-21T00:31:42;17.50;88.70
46488;DHT22;32202;48.780;9.204;2022-08-21T00:34:09;17.50;89.30
46488;DHT22;32202;48.780;9.204;2022-08-21T00:36:36;17.40;89.60
46488;DHT22;32202;48.780;9.204;2022-08-21T00:39:05;17.40;90.00
46488;DHT22;32202;48.780;9.204;2022-08-21T00:41:32;17.40;90.00
46488;DHT22;32202;48.780;9.204;2022-08-21T00:43:57;17.40;90.10
46488;DHT22;32202;48.780;9.204;2022-08-21T00:46:24;17.30;90.00
46488;DHT22;32202;48.780;9.204;2022-08-21T00:48:49;17.30;90.00
46488;DHT22;32202;48.780;9.204;2022-08-21T00:51:35;17.30;89.90
46488;DHT22;32202;48.780;9.204;2022-08-21T00:54:02;17.20;90.00
46488;DHT22;32202;48.780;9.204;2022-08-21T00:56:28;17.20;89.90
46488;DHT22;32202;48.780;9.204;2022-08-21T00:58:55;17.20;89.80
46488;DHT22;32202;48.780;9.204;2022-08-21T01:01:22;17.20;89.90
46488;DHT22;32202;48.780;9.204;2022-08-21T01:03:48;17.10;90.00
46488;DHT22;32202;48.780;9.204;2022-08-21T01:06:14;17.10;90.20
46488;DHT22;32202;48.780;9.204;2022-08-21T01:08:40;17.10;89.90
46488;DHT22;32202;48.780;9.204;2022-08-21T01:11:06;17.10;89.50
46488;DHT22;32202;48.780;9.204;2022-08-21T01:13:36;17.10;90.00
46488;DHT22;32202;48.780;9.204;2022-08-21T01:16:04;17.00;89.90
46488;DHT22;32202;48.780;9.204;2022-08-21T01:18:33;17.00;89.10
46488;DHT22;32202;48.780;9.204;2022-08-21T01:23:34;16.90;87.50
46488;DHT22;32202;48.780;9.204;2022-08-21T01:26:00;16.90;87.60
46488;DHT22;32202;48.780;9.204;2022-08-21T01:28:26;16.90;87.90
46488;DHT22;32202;48.780;9.204;2022-08-21T01:30:53;16.90;88.40
46488;DHT22;32202;48.780;9.204;2022-08-21T01:33:22;16.80;88.70
46488;DHT22;32202;48.780;9.204;2022-08-21T01:35:49;16.80;89.20
46488;DHT22;32202;48.780;9.204;2022-08-21T01:38:15;16.80;89.90
46488;DHT22;32202;48.780;9.204;2022-08-21T01:40:40;16.80;90.00
46488;DHT22;32202;48.780;9.204;2022-08-21T01:43:06;16.80;90.00
46488;DHT22;32202;48.780;9.204;2022-08-21T01:45:32;16.80;90.00
46488;DHT22;32202;48.780;9.204;2022-08-21T01:47:57;16.70;90.10
46488;DHT22;32202;48.780;9.204;2022-08-21T01:50:23;16.70;90.30
46488;DHT22;32202;48.780;9.204;2022-08-21T01:52:49;16.70;90.60
46488;DHT22;32202;48.780;9.204;2022-08-21T01:55:17;16.60;90.80
46488;DHT22;32202;48.780;9.204;2022-08-21T01:57:44;16.60;91.00
46488;DHT22;32202;48.780;9.204;2022-08-21T02:00:14;16.60;91.20
46488;DHT22;32202;48.780;9.204;2022-08-21T02:02:40;16.60;91.50
46488;DHT22;32202;48.780;9.204;2022-08-21T02:05:08;16.60;91.50
46488;DHT22;32202;48.780;9.204;2022-08-21T02:07:40;16.60;91.70
46488;DHT22;32202;48.780;9.204;2022-08-21T02:10:08;16.50;91.90
46488;DHT22;32202;48.780;9.204;2022-08-21T02:12:34;16.50;92.00
46488;DHT22;32202;48.780;9.204;2022-08-21T02:15:00;16.50;92.10
46488;DHT22;32202;48.780;9.204;2022-08-21T02:17:25;16.50;92.10
46488;DHT22;32202;48.780;9.204;2022-08-21T02:19:51;16.50;92.30
46488;DHT22;32202;48.780;9.204;2022-08-21T02:22:17;16.40;92.60
46488;DHT22;32202;48.780;9.204;2022-08-21T02:24:45;16.40;92.70
46488;DHT22;32202;48.780;9.204;2022-08-21T02:27:10;16.40;92.80
46488;DHT22;32202;48.780;9.204;2022-08-21T02:29:36;16.30;92.90
46488;DHT22;32202;48.780;9.204;2022-08-21T02:32:01;16.30;92.90
46488;DHT22;32202;48.780;9.204;2022-08-21T02:34:27;16.30;92.60
46488;DHT22;32202;48.780;9.204;2022-08-21T02:36:53;16.30;92.60
46488;DHT22;32202;48.780;9.204;2022-08-21T02:39:18;16.30;92.60
46488;DHT22;32202;48.780;9.204;2022-08-21T02:41:44;16.30;92.60
46488;DHT22;32202;48.780;9.204;2022-08-21T02:44:09;16.30;92.70
46488;DHT22;32202;48.780;9.204;2022-08-21T02:46:35;16.20;92.80
46488;DHT22;32202;48.780;9.204;2022-08-21T02:49:00;16.10;92.90
46488;DHT22;32202;48.780;9.204;2022-08-21T02:51:26;16.10;92.90
46488;DHT22;32202;48.780;9.204;2022-08-21T02:53:52;16.10;93.00
46488;DHT22;32202;48.780;9.204;2022-08-21T02:56:20;16.10;93.10
46488;DHT22;32202;48.780;9.204;2022-08-21T02:58:48;16.10;93.30
46488;DHT22;32202;48.780;9.204;2022-08-21T03:01:15;16.10;93.60
46488;DHT22;32202;48.780;9.204;2022-08-21T03:03:42;16.10;93.50
46488;DHT22;32202;48.780;9.204;2022-08-21T03:06:10;16.10;93.50
46488;DHT22;32202;48.780;9.204;2022-08-21T03:08:37;16.00;93.80
46488;DHT22;32202;48.780;9.204;2022-08-21T03:11:03;16.00;93.80
46488;DHT22;32202;48.780;9.204;2022-08-21T03:13:28;15.90;93.90
46488;DHT22;32202;48.780;9.204;2022-08-21T03:15:55;15.90;94.10
46488;DHT22;32202;48.780;9.204;2022-08-21T03:18:21;15.90;94.40
46488;DHT22;32202;48.780;9.204;2022-08-21T03:20:47;15.90;94.20
46488;DHT22;32202;48.780;9.204;2022-08-21T03:23:13;15.90;94.20
46488;DHT22;32202;48.780;9.204;2022-08-21T03:25:39;15.90;94.40
46488;DHT22;32202;48.780;9.204;2022-08-21T03:28:11;15.80;94.40
46488;DHT22;32202;48.780;9.204;2022-08-21T03:30:37;15.80;94.40
46488;DHT22;32202;48.780;9.204;2022-08-21T03:33:03;15.80;94.40
46488;DHT22;32202;48.780;9.204;2022-08-21T03:35:29;15.80;94.40
46488;DHT22;32202;48.780;9.204;2022-08-21T03:37:55;15.80;94.50
46488;DHT22;32202;48.780;9.204;2022-08-21T03:40:21;15.70;94.60
46488;DHT22;32202;48.780;9.204;2022-08-21T03:42:47;15.80;94.70
46488;DHT22;32202;48.780;9.204;2022-08-21T03:45:15;15.70;94.70
46488;DHT22;32202;48.780;9.204;2022-08-21T03:47:57;15.70;94.80
46488;DHT22;32202;48.780;9.204;2022-08-21T03:50:28;15.70;95.00
46488;DHT22;32202;48.780;9.204;2022-08-21T03:52:54;15.70;95.10
46488;DHT22;32202;48.780;9.204;2022-08-21T03:55:20;15.70;95.20
46488;DHT22;32202;48.780;9.204;2022-08-21T03:57:45;15.60;95.50
46488;DHT22;32202;48.780;9.204;2022-08-21T04:00:13;15.60;95.50
46488;DHT22;32202;48.780;9.204;2022-08-21T04:02:39;15.70;95.40
46488;DHT22;32202;48.780;9.204;2022-08-21T04:05:06;15.60;95.50
46488;DHT22;32202;48.780;9.204;2022-08-21T04:07:32;15.60;95.70
46488;DHT22;32202;48.780;9.204;2022-08-21T04:09:57;15.60;95.90
46488;DHT22;32202;48.780;9.204;2022-08-21T04:12:23;15.60;96.00
46488;DHT22;32202;48.780;9.204;2022-08-21T04:14:49;15.60;96.10
46488;DHT22;32202;48.780;9.204;2022-08-21T04:17:17;15.60;96.10
46488;DHT22;32202;48.780;9.204;2022-08-21T04:19:42;15.50;96.10
46488;DHT22;32202;48.780;9.204;2022-08-21T04:22:08;15.50;96.10
46488;DHT22;32202;48.780;9.204;2022-08-21T04:24:33;15.50;96.10
46488;DHT22;32202;48.780;9.204;2022-08-21T04:26:59;15.50;96.20
46488;DHT22;32202;48.780;9.204;2022-08-21T04:29:25;15.50;96.40
46488;DHT22;32202;48.780;9.204;2022-08-21T04:31:51;15.50;96.00
46488;DHT22;32202;48.780;9.204;2022-08-21T04:34:18;15.50;95.90
46488;DHT22;32202;48.780;9.204;2022-08-21T04:36:43;15.50;95.90
46488;DHT22;32202;48.780;9.204;2022-08-21T04:39:09;15.50;96.00
46488;DHT22;32202;48.780;9.204;2022-08-21T04:41:35;15.50;95.70
46488;DHT22;32202;48.780;9.204;2022-08-21T04:44:02;15.50;95.50
46488;DHT22;32202;48.780;9.204;2022-08-21T04:46:28;15.50;95.30
46488;DHT22;32202;48.780;9.204;2022-08-21T04:48:53;15.50;95.30
46488;DHT22;32202;48.780;9.204;2022-08-21T04:51:23;15.60;95.10
46488;DHT22;32202;48.780;9.204;2022-08-21T04:53:59;15.70;95.10
46488;DHT22;32202;48.780;9.204;2022-08-21T04:56:53;15.80;95.10
46488;DHT22;32202;48.780;9.204;2022-08-21T04:59:26;15.90;94.40
46488;DHT22;32202;48.780;9.204;2022-08-21T05:01:53;15.90;93.90
46488;DHT22;32202;48.780;9.204;2022-08-21T05:04:23;15.90;93.70
46488;DHT22;32202;48.780;9.204;2022-08-21T05:06:51;16.00;93.70
46488;DHT22;32202;48.780;9.204;2022-08-21T05:09:19;16.10;93.50
46488;DHT22;32202;48.780;9.204;2022-08-21T05:11:46;16.20;93.00
46488;DHT22;32202;48.780;9.204;2022-08-21T05:14:12;16.30;92.60
46488;DHT22;32202;48.780;9.204;2022-08-21T05:16:38;16.30;92.10
46488;DHT22;32202;48.780;9.204;2022-08-21T05:19:06;16.50;92.00
46488;DHT22;32202;48.780;9.204;2022-08-21T05:21:33;17.00;90.80
46488;DHT22;32202;48.780;9.204;2022-08-21T05:23:59;17.70;87.30
46488;DHT22;32202;48.780;9.204;2022-08-21T05:26:25;18.50;82.40
46488;DHT22;32202;48.780;9.204;2022-08-21T05:28:50;19.40;77.60
46488;DHT22;32202;48.780;9.204;2022-08-21T05:31:17;20.20;73.80
46488;DHT22;32202;48.780;9.204;2022-08-21T05:33:43;21.00;70.10
46488;DHT22;32202;48.780;9.204;2022-08-21T05:36:08;21.80;66.50
46488;DHT22;32202;48.780;9.204;2022-08-21T05:38:34;22.60;63.00
46488;DHT22;32202;48.780;9.204;2022-08-21T05:41:00;23.30;60.70
46488;DHT22;32202;48.780;9.204;2022-08-21T05:43:25;24.00;58.90
46488;DHT22;32202;48.780;9.204;2022-08-21T05:45:51;24.70;56.90
46488;DHT22;32202;48.780;9.204;2022-08-21T05:48:22;25.40;55.00
46488;DHT22;32202;48.780;9.204;2022-08-21T05:50:49;26.00;53.50
46488;DHT22;32202;48.780;9.204;2022-08-21T05:53:16;26.60;52.20
46488;DHT22;32202;48.780;9.204;2022-08-21T05:55:43;27.10;51.00
46488;DHT22;32202;48.780;9.204;2022-08-21T05:58:09;27.70;49.90
46488;DHT22;32202;48.780;9.204;2022-08-21T06:00:35;28.40;48.60
46488;DHT22;32202;48.780;9.204;2022-08-21T06:03:00;28.90;47.70
46488;DHT22;32202;48.780;9.204;2022-08-21T06:05:26;29.40;46.60
46488;DHT22;32202;48.780;9.204;2022-08-21T06:07:52;29.90;45.90
46488;DHT22;32202;48.780;9.204;2022-08-21T06:10:18;30.30;44.90
46488;DHT22;32202;48.780;9.204;2022-08-21T06:12:43;30.80;44.60
46488;DHT22;32202;48.780;9.204;2022-08-21T06:15:09;31.10;43.80
46488;DHT22;32202;48.780;9.204;2022-08-21T06:17:35;31.50;43.40
46488;DHT22;32202;48.780;9.204;2022-08-21T06:20:00;32.00;42.90
46488;DHT22;32202;48.780;9.204;2022-08-21T06:22:26;32.40;42.30
46488;DHT22;32202;48.780;9.204;2022-08-21T06:24:52;32.80;41.00
46488;DHT22;32202;48.780;9.204;2022-08-21T06:27:17;32.60;41.50
46488;DHT22;32202;48.780;9.204;2022-08-21T06:29:43;32.80;41.10
46488;DHT22;32202;48.780;9.204;2022-08-21T06:32:11;33.20;41.10
46488;DHT22;32202;48.780;9.204;2022-08-21T06:34:40;33.80;40.50
46488;DHT22;32202;48.780;9.204;2022-08-21T06:37:06;34.30;40.10
46488;DHT22;32202;48.780;9.204;2022-08-21T06:39:32;34.80;39.80
46488;DHT22;32202;48.780;9.204;2022-08-21T06:41:59;35.20;39.30
46488;DHT22;32202;48.780;9.204;2022-08-21T06:44:25;35.60;38.90
46488;DHT22;32202;48.780;9.204;2022-08-21T06:46:54;36.00;38.50
46488;DHT22;32202;48.780;9.204;2022-08-21T06:49:19;36.40;38.20
46488;DHT22;32202;48.780;9.204;2022-08-21T06:51:45;36.80;37.80
46488;DHT22;32202;48.780;9.204;2022-08-21T06:54:10;37.00;37.20
46488;DHT22;32202;48.780;9.204;2022-08-21T06:56:36;37.20;37.10
46488;DHT22;32202;48.780;9.204;2022-08-21T06:59:04;37.40;37.20
46488;DHT22;32202;48.780;9.204;2022-08-21T07:01:30;37.80;37.50
46488;DHT22;32202;48.780;9.204;2022-08-21T07:03:56;38.10;36.70
46488;DHT22;32202;48.780;9.204;2022-08-21T07:06:21;38.50;36.60
46488;DHT22;32202;48.780;9.204;2022-08-21T07:08:47;38.70;36.30
46488;DHT22;32202;48.780;9.204;2022-08-21T07:11:18;38.70;35.80
46488;DHT22;32202;48.780;9.204;2022-08-21T07:13:44;39.00;35.90
46488;DHT22;32202;48.780;9.204;2022-08-21T07:16:11;39.20;35.80
46488;DHT22;32202;48.780;9.204;2022-08-21T07:18:37;39.60;35.40
46488;DHT22;32202;48.780;9.204;2022-08-21T07:21:05;40.00;34.80
46488;DHT22;32202;48.780;9.204;2022-08-21T07:23:43;40.50;34.70
46488;DHT22;32202;48.780;9.204;2022-08-21T07:26:11;40.80;34.20
46488;DHT22;32202;48.780;9.204;2022-08-21T07:28:36;41.00;33.90
46488;DHT22;32202;48.780;9.204;2022-08-21T07:31:03;41.30;33.50
46488;DHT22;32202;48.780;9.204;2022-08-21T07:33:32;41.60;33.30
46488;DHT22;32202;48.780;9.204;2022-08-21T07:35:58;41.70;33.20
46488;DHT22;32202;48.780;9.204;2022-08-21T07:38:25;42.10;32.80
46488;DHT22;32202;48.780;9.204;2022-08-21T07:40:53;42.10;32.70
46488;DHT22;32202;48.780;9.204;2022-08-21T07:43:19;42.60;32.40
46488;DHT22;32202;48.780;9.204;2022-08-21T07:45:47;42.90;32.30
46488;DHT22;32202;48.780;9.204;2022-08-21T07:48:15;43.20;32.10
46488;DHT22;32202;48.780;9.204;2022-08-21T07:50:41;43.50;31.90
46488;DHT22;32202;48.780;9.204;2022-08-21T07:53:06;43.70;31.70
46488;DHT22;32202;48.780;9.204;2022-08-21T07:55:33;43.80;31.40
46488;DHT22;32202;48.780;9.204;2022-08-21T07:57:58;43.50;32.30
46488;DHT22;32202;48.780;9.204;2022-08-21T08:00:27;43.70;31.40
46488;DHT22;32202;48.780;9.204;2022-08-21T08:02:54;43.50;31.60
46488;DHT22;32202;48.780;9.204;2022-08-21T08:05:24;43.70;32.20
46488;DHT22;32202;48.780;9.204;2022-08-21T08:07:50;44.40;31.00
46488;DHT22;32202;48.780;9.204;2022-08-21T08:10:17;45.00;30.90
46488;DHT22;32202;48.780;9.204;2022-08-21T08:12:44;45.70;30.40
46488;DHT22;32202;48.780;9.204;2022-08-21T08:15:22;46.00;30.10
46488;DHT22;32202;48.780;9.204;2022-08-21T08:17:48;46.20;30.00
46488;DHT22;32202;48.780;9.204;2022-08-21T08:20:15;46.10;30.00
46488;DHT22;32202;48.780;9.204;2022-08-21T08:22:42;46.50;29.90
46488;DHT22;32202;48.780;9.204;2022-08-21T08:25:09;46.60;30.00
46488;DHT22;32202;48.780;9.204;2022-08-21T08:27:34;47.10;29.70
46488;DHT22;32202;48.780;9.204;2022-08-21T08:30:00;47.00;29.70
46488;DHT22;32202;48.780;9.204;2022-08-21T08:32:27;47.30;29.60
46488;DHT22;32202;48.780;9.204;2022-08-21T08:34:52;47.70;29.50
46488;DHT22;32202;48.780;9.204;2022-08-21T08:37:19;47.80;29.40
46488;DHT22;32202;48.780;9.204;2022-08-21T08:39:45;48.10;29.30
46488;DHT22;32202;48.780;9.204;2022-08-21T08:42:32;47.40;29.20
46488;DHT22;32202;48.780;9.204;2022-08-21T08:45:24;47.00;29.60
46488;DHT22;32202;48.780;9.204;2022-08-21T08:48:03;47.20;29.30
46488;DHT22;32202;48.780;9.204;2022-08-21T08:50:37;47.50;29.20
46488;DHT22;32202;48.780;9.204;2022-08-21T08:53:10;47.70;29.40
46488;DHT22;32202;48.780;9.204;2022-08-21T08:55:42;48.20;29.00
46488;DHT22;32202;48.780;9.204;2022-08-21T08:58:36;48.30;28.90
46488;DHT22;32202;48.780;9.204;2022-08-21T09:01:06;47.80;29.00
46488;DHT22;32202;48.780;9.204;2022-08-21T09:03:37;48.10;28.80
46488;DHT22;32202;48.780;9.204;2022-08-21T09:06:28;48.40;28.50
46488;DHT22;32202;48.780;9.204;2022-08-21T09:09:11;48.30;28.50
46488;DHT22;32202;48.780;9.204;2022-08-21T09:12:25;48.30;28.30
46488;DHT22;32202;48.780;9.204;2022-08-21T09:22:59;49.80;28.10
46488;DHT22;32202;48.780;9.204;2022-08-21T09:25:56;50.20;27.80
46488;DHT22;32202;48.780;9.204;2022-08-21T09:28:24;50.00;27.60
46488;DHT22;32202;48.780;9.204;2022-08-21T09:30:51;49.80;27.60
46488;DHT22;32202;48.780;9.204;2022-08-21T09:33:19;50.00;27.50
46488;DHT22;32202;48.780;9.204;2022-08-21T09:35:52;50.10;27.20
46488;DHT22;32202;48.780;9.204;2022-08-21T09:38:34;49.90;27.40
46488;DHT22;32202;48.780;9.204;2022-08-21T09:41:08;50.90;26.90
46488;DHT22;32202;48.780;9.204;2022-08-21T09:43:36;51.20;26.60
46488;DHT22;32202;48.780;9.204;2022-08-21T09:48:39;51.90;26.70
46488;DHT22;32202;48.780;9.204;2022-08-21T09:51:08;51.70;26.70
46488;DHT22;32202;48.780;9.204;2022-08-21T09:53:37;52.20;26.70
46488;DHT22;32202;48.780;9.204;2022-08-21T09:56:05;52.30;26.50
46488;DHT22;32202;48.780;9.204;2022-08-21T09:58:51;52.40;26.60
46488;DHT22;32202;48.780;9.204;2022-08-21T10:03:42;52.30;26.60
46488;DHT22;32202;48.780;9.204;2022-08-21T10:06:09;52.20;26.80
46488;DHT22;32202;48.780;9.204;2022-08-21T10:08:40;52.30;26.60
46488;DHT22;32202;48.780;9.204;2022-08-21T10:11:10;52.30;26.60
46488;DHT22;32202;48.780;9.204;2022-08-21T10:13:52;52.50;26.50
46488;DHT22;32202;48.780;9.204;2022-08-21T10:16:30;52.30;26.50
46488;DHT22;32202;48.780;9.204;2022-08-21T10:21:51;52.10;26.60
46488;DHT22;32202;48.780;9.204;2022-08-21T10:24:29;51.20;26.60
46488;DHT22;32202;48.780;9.204;2022-08-21T10:27:14;50.40;26.70
46488;DHT22;32202;48.780;9.204;2022-08-21T10:29:50;50.10;26.90
46488;DHT22;32202;48.780;9.204;2022-08-21T10:32:29;50.10;26.90
46488;DHT22;32202;48.780;9.204;2022-08-21T10:35:21;51.50;26.80
46488;DHT22;32202;48.780;9.204;2022-08-21T10:40:52;51.50;26.70
46488;DHT22;32202;48.780;9.204;2022-08-21T10:43:38;52.00;26.60
46488;DHT22;32202;48.780;9.204;2022-08-21T10:46:36;52.00;26.60
46488;DHT22;32202;48.780;9.204;2022-08-21T10:51:54;52.80;26.40
46488;DHT22;32202;48.780;9.204;2022-08-21T10:57:11;52.30;26.50
46488;DHT22;32202;48.780;9.204;2022-08-21T11:00:06;52.20;26.40
46488;DHT22;32202;48.780;9.204;2022-08-21T11:02:40;52.40;26.40
46488;DHT22;32202;48.780;9.204;2022-08-21T11:05:16;52.40;26.40
46488;DHT22;32202;48.780;9.204;2022-08-21T11:07:57;52.40;26.20
46488;DHT22;32202;48.780;9.204;2022-08-21T11:10:48;50.30;26.40
46488;DHT22;32202;48.780;9.204;2022-08-21T11:13:39;47.50;27.40
46488;DHT22;32202;48.780;9.204;2022-08-21T11:18:37;47.60;27.60
46488;DHT22;32202;48.780;9.204;2022-08-21T11:21:18;48.30;27.40
46488;DHT22;32202;48.780;9.204;2022-08-21T11:26:43;49.70;27.10
46488;DHT22;32202;48.780;9.204;2022-08-21T11:29:32;50.70;26.90
46488;DHT22;32202;48.780;9.204;2022-08-21T11:35:08;52.10;26.50
46488;DHT22;32202;48.780;9.204;2022-08-21T11:43:09;50.80;26.40
46488;DHT22;32202;48.780;9.204;2022-08-21T11:45:58;48.60;27.00
46488;DHT22;32202;48.780;9.204;2022-08-21T11:48:36;45.30;27.70
46488;DHT22;32202;48.780;9.204;2022-08-21T11:51:11;42.80;28.80
46488;DHT22;32202;48.780;9.204;2022-08-21T11:53:39;41.80;29.30
46488;DHT22;32202;48.780;9.204;2022-08-21T11:56:19;43.10;28.90
46488;DHT22;32202;48.780;9.204;2022-08-21T11:58:54;43.70;28.70
46488;DHT22;32202;48.780;9.204;2022-08-21T12:01:25;43.60;28.70
46488;DHT22;32202;48.780;9.204;2022-08-21T12:04:05;44.20;28.40
46488;DHT22;32202;48.780;9.204;2022-08-21T12:06:36;46.00;28.00
46488;DHT22;32202;48.780;9.204;2022-08-21T12:09:25;47.10;27.50
46488;DHT22;32202;48.780;9.204;2022-08-21T12:12:22;48.00;27.10
46488;DHT22;32202;48.780;9.204;2022-08-21T12:14:50;48.70;26.90
46488;DHT22;32202;48.780;9.204;2022-08-21T12:17:34;49.10;26.70
46488;DHT22;32202;48.780;9.204;2022-08-21T12:23:33;49.90;26.60
46488;DHT22;32202;48.780;9.204;2022-08-21T12:28:09;45.50;27.30
46488;DHT22;32202;48.780;9.204;2022-08-21T12:30:44;43.10;28.10
46488;DHT22;32202;48.780;9.204;2022-08-21T12:36:06;40.80;29.20
46488;DHT22;32202;48.780;9.204;2022-08-21T12:38:45;41.70;28.90
46488;DHT22;32202;48.780;9.204;2022-08-21T12:41:19;42.70;28.40
46488;DHT22;32202;48.780;9.204;2022-08-21T12:43:51;44.40;28.10
46488;DHT22;32202;48.780;9.204;2022-08-21T12:46:59;45.90;27.70
46488;DHT22;32202;48.780;9.204;2022-08-21T12:49:37;47.10;27.30
46488;DHT22;32202;48.780;9.204;2022-08-21T12:52:16;47.40;27.70
46488;DHT22;32202;48.780;9.204;2022-08-21T12:54:45;48.20;27.00
46488;DHT22;32202;48.780;9.204;2022-08-21T12:57:23;47.40;26.80
46488;DHT22;32202;48.780;9.204;2022-08-21T12:59:55;45.00;27.50
46488;DHT22;32202;48.780;9.204;2022-08-21T13:02:25;44.00;27.90
46488;DHT22;32202;48.780;9.204;2022-08-21T13:04:53;45.20;27.70
46488;DHT22;32202;48.780;9.204;2022-08-21T13:07:24;45.90;27.70
46488;DHT22;32202;48.780;9.204;2022-08-21T13:09:55;45.90;27.40
46488;DHT22;32202;48.780;9.204;2022-08-21T13:12:22;46.70;27.40
46488;DHT22;32202;48.780;9.204;2022-08-21T13:14:50;46.70;27.30
46488;DHT22;32202;48.780;9.204;2022-08-21T13:17:18;45.30;27.60
46488;DHT22;32202;48.780;9.204;2022-08-21T13:19:57;44.50;27.80
46488;DHT22;32202;48.780;9.204;2022-08-21T13:22:24;44.60;27.90
46488;DHT22;32202;48.780;9.204;2022-08-21T13:24:50;45.00;27.80
46488;DHT22;32202;48.780;9.204;2022-08-21T13:27:27;45.50;27.70
46488;DHT22;32202;48.780;9.204;2022-08-21T13:30:19;45.80;27.60
46488;DHT22;32202;48.780;9.204;2022-08-21T13:32:50;45.80;27.50
46488;DHT22;32202;48.780;9.204;2022-08-21T13:35:46;45.70;27.40
46488;DHT22;32202;48.780;9.204;2022-08-21T13:38:03;45.50;27.40
46488;DHT22;32202;48.780;9.204;2022-08-21T13:40:37;45.50;27.50
46488;DHT22;32202;48.780;9.204;2022-08-21T13:43:11;45.10;27.60
46488;DHT22;32202;48.780;9.204;2022-08-21T13:45:38;44.10;27.60
46488;DHT22;32202;48.780;9.204;2022-08-21T13:48:04;43.50;28.10
46488;DHT22;32202;48.780;9.204;2022-08-21T13:50:33;43.60;28.00
46488;DHT22;32202;48.780;9.204;2022-08-21T13:53:06;44.00;28.20
46488;DHT22;32202;48.780;9.204;2022-08-21T13:55:43;44.20;28.00
46488;DHT22;32202;48.780;9.204;2022-08-21T13:58:10;44.00;28.00
46488;DHT22;32202;48.780;9.204;2022-08-21T14:00:46;43.60;28.10
46488;DHT22;32202;48.780;9.204;2022-08-21T14:03:23;43.40;28.10
46488;DHT22;32202;48.780;9.204;2022-08-21T14:05:51;42.40;28.50
46488;DHT22;32202;48.780;9.204;2022-08-21T14:08:31;41.70;28.70
46488;DHT22;32202;48.780;9.204;2022-08-21T14:10:58;41.00;28.80
46488;DHT22;32202;48.780;9.204;2022-08-21T14:13:29;40.40;29.10
46488;DHT22;32202;48.780;9.204;2022-08-21T14:16:00;39.40;29.50
46488;DHT22;32202;48.780;9.204;2022-08-21T14:18:27;37.80;30.30
46488;DHT22;32202;48.780;9.204;2022-08-21T14:21:04;36.90;30.60
46488;DHT22;32202;48.780;9.204;2022-08-21T14:23:30;36.20;31.90
46488;DHT22;32202;48.780;9.204;2022-08-21T14:25:59;35.60;31.60
46488;DHT22;32202;48.780;9.204;2022-08-21T14:28:38;35.20;32.30
46488;DHT22;32202;48.780;9.204;2022-08-21T14:31:16;34.80;32.20
46488;DHT22;32202;48.780;9.204;2022-08-21T14:33:43;34.50;32.50
46488;DHT22;32202;48.780;9.204;2022-08-21T14:36:08;34.10;33.40
46488;DHT22;32202;48.780;9.204;2022-08-21T14:38:36;33.70;33.20
46488;DHT22;32202;48.780;9.204;2022-08-21T14:41:18;33.30;33.50
46488;DHT22;32202;48.780;9.204;2022-08-21T14:43:47;33.00;34.10
46488;DHT22;32202;48.780;9.204;2022-08-21T14:46:21;32.60;34.50
46488;DHT22;32202;48.780;9.204;2022-08-21T14:48:47;32.50;34.40
46488;DHT22;32202;48.780;9.204;2022-08-21T14:51:13;32.40;34.50
46488;DHT22;32202;48.780;9.204;2022-08-21T14:53:39;32.40;34.50
46488;DHT22;32202;48.780;9.204;2022-08-21T14:56:05;32.30;34.50
46488;DHT22;32202;48.780;9.204;2022-08-21T14:58:32;32.20;34.50
46488;DHT22;32202;48.780;9.204;2022-08-21T15:00:58;32.10;34.80
46488;DHT22;32202;48.780;9.204;2022-08-21T15:03:25;31.90;34.80
46488;DHT22;32202;48.780;9.204;2022-08-21T15:05:51;31.90;35.90
46488;DHT22;32202;48.780;9.204;2022-08-21T15:08:17;31.80;34.90
46488;DHT22;32202;48.780;9.204;2022-08-21T15:10:43;31.80;34.60
46488;DHT22;32202;48.780;9.204;2022-08-21T15:13:09;31.80;34.70
46488;DHT22;32202;48.780;9.204;2022-08-21T15:15:45;31.50;34.60
46488;DHT22;32202;48.780;9.204;2022-08-21T15:18:12;31.30;34.80
46488;DHT22;32202;48.780;9.204;2022-08-21T15:20:38;31.20;34.70
46488;DHT22;32202;48.780;9.204;2022-08-21T15:23:04;31.10;34.90
46488;DHT22;32202;48.780;9.204;2022-08-21T15:25:31;31.10;35.10
46488;DHT22;32202;48.780;9.204;2022-08-21T15:27:57;30.90;35.10
46488;DHT22;32202;48.780;9.204;2022-08-21T15:30:23;30.80;35.50
46488;DHT22;32202;48.780;9.204;2022-08-21T15:32:49;30.70;35.70
46488;DHT22;32202;48.780;9.204;2022-08-21T15:35:15;30.40;35.70
46488;DHT22;32202;48.780;9.204;2022-08-21T15:37:40;30.40;35.90
46488;DHT22;32202;48.780;9.204;2022-08-21T15:40:07;30.40;36.60
46488;DHT22;32202;48.780;9.204;2022-08-21T15:42:33;30.30;36.40
46488;DHT22;32202;48.780;9.204;2022-08-21T15:45:00;30.30;36.20
46488;DHT22;32202;48.780;9.204;2022-08-21T15:47:30;30.20;36.30
46488;DHT22;32202;48.780;9.204;2022-08-21T15:49:56;30.10;36.20
46488;DHT22;32202;48.780;9.204;2022-08-21T15:52:22;30.00;36.40
46488;DHT22;32202;48.780;9.204;2022-08-21T15:54:52;29.90;36.70
46488;DHT22;32202;48.780;9.204;2022-08-21T15:57:22;29.90;36.70
46488;DHT22;32202;48.780;9.204;2022-08-21T15:59:56;29.90;36.60
46488;DHT22;32202;48.780;9.204;2022-08-21T16:02:26;29.90;36.60
46488;DHT22;32202;48.780;9.204;2022-08-21T16:04:53;30.00;36.60
46488;DHT22;32202;48.780;9.204;2022-08-21T16:07:19;30.00;36.70
46488;DHT22;32202;48.780;9.204;2022-08-21T16:09:44;29.90;36.70
46488;DHT22;32202;48.780;9.204;2022-08-21T16:12:16;29.90;36.50
46488;DHT22;32202;48.780;9.204;2022-08-21T16:14:43;29.90;36.30
46488;DHT22;32202;48.780;9.204;2022-08-21T16:17:08;29.90;36.70
46488;DHT22;32202;48.780;9.204;2022-08-21T16:19:35;29.80;36.80
46488;DHT22;32202;48.780;9.204;2022-08-21T16:22:02;29.80;36.50
46488;DHT22;32202;48.780;9.204;2022-08-21T16:24:27;29.80;36.90
46488;DHT22;32202;48.780;9.204;2022-08-21T16:26:53;29.60;36.80
46488;DHT22;32202;48.780;9.204;2022-08-21T16:29:19;29.40;36.80
46488;DHT22;32202;48.780;9.204;2022-08-21T16:31:47;29.30;36.80
46488;DHT22;32202;48.780;9.204;2022-08-21T16:34:16;29.20;36.70
46488;DHT22;32202;48.780;9.204;2022-08-21T16:36:42;29.10;36.70